Time;durP1;ratioP1;P1;durP2;ratioP2;P2;SDS_P1;SDS_P2;PMS_P1;PMS_P2;Temp;Humidity;BMP_temperature;BMP_pressure;BME280_temperature;BME280_humidity;BME280_pressure;Samples;Min_cycle;Max_cycle;Signal;HPM_P1;HPM_P2
2022/01/27 00:00:38;;;;;;;32.63;11.47;;;;;;;;;;4999927;28;20050;-71
2022/01/27 00:05:56;;;;;;;35.03;12.60;;;;;;;;;;4999858;28;20064;-71
2022/01/27 00:08:37;;;;;;;27.00;8.82;;;;;;;;;;4999298;28;20081;-72
2022/01/27 00:11:09;;;;;;;28.38;10.45;;;;;;;;;;5002757;28;20049;-72
2022/01/27 00:13:43;;;;;;;38.05;12.00;;;;;;;;;;5004108;28;20042;-72
2022/01/27 00:16:15;;;;;;;32.75;11.75;;;;;;;;;;5002092;28;20141;-71
2022/01/27 00:18:42;;;;;;;35.38;11.52;;;;;;;;;;4998237;28;20026;-71
2022/01/27 00:21:08;;;;;;;32.10;11.57;;;;;;;;;;4984072;28;20038;-71
2022/01/27 00:23:34;;;;;;;34.78;12.20;;;;;;;;;;4984610;28;20500;-71
2022/01/27 00:25:59;;;;;;;33.72;12.05;;;;;;;;;;4984033;28;20189;-72
2022/01/27 00:28:25;;;;;;;33.50;11.25;;;;;;;;;;4987113;28;20704;-72
2022/01/27 00:30:50;;;;;;;28.92;11.23;;;;;;;;;;4998786;28;20046;-71
2022/01/27 00:33:15;;;;;;;31.15;11.43;;;;;;;;;;4978992;28;20046;-71
2022/01/27 00:35:41;;;;;;;36.63;12.07;;;;;;;;;;4983064;28;20145;-71
2022/01/27 00:38:06;;;;;;;36.95;11.43;;;;;;;;;;4984447;28;20401;-72
2022/01/27 00:40:31;;;;;;;31.35;10.77;;;;;;;;;;4982805;28;20041;-72
2022/01/27 00:42:57;;;;;;;34.00;11.90;;;;;;;;;;4982591;28;20038;-72
2022/01/27 00:45:24;;;;;;;34.88;12.02;;;;;;;;;;4980094;28;20018;-71
2022/01/27 00:47:50;;;;;;;32.90;11.95;;;;;;;;;;4991345;28;20204;-72
2022/01/27 00:50:17;;;;;;;34.35;12.80;;;;;;;;;;4982940;28;20453;-72
2022/01/27 00:52:48;;;;;;;28.73;10.75;;;;;;;;;;4994726;28;20523;-72
2022/01/27 00:55:14;;;;;;;41.00;11.68;;;;;;;;;;4980052;28;20078;-72
2022/01/27 01:00:12;;;;;;;35.13;11.43;;;;;;;;;;4979951;28;20054;-71
2022/01/27 01:02:47;;;;;;;40.55;12.55;;;;;;;;;;4980765;28;20030;-70
2022/01/27 01:08:05;;;;;;;;;;;;;;;;;;5003428;28;20041;-70
2022/01/27 01:15:53;;;;;;;29.42;10.35;;;;;;;;;;4951356;28;20564;-71
2022/01/27 01:21:44;;;;;;;34.00;10.93;;;;;;;;;;4943263;28;20055;-70
2022/01/27 01:34:30;;;;;;;32.88;11.07;;;;;;;;;;4985283;28;20363;-70
2022/01/27 01:36:58;;;;;;;33.63;11.02;;;;;;;;;;4984847;28;20057;-70
2022/01/27 01:39:29;;;;;;;34.40;11.48;;;;;;;;;;4986293;28;20054;-71
2022/01/27 01:41:55;;;;;;;42.13;11.85;;;;;;;;;;4987120;28;20039;-71
2022/01/27 01:44:21;;;;;;;29.67;10.82;;;;;;;;;;4983725;28;20101;-71
2022/01/27 01:46:46;;;;;;;31.35;10.82;;;;;;;;;;4976717;28;20582;-70
2022/01/27 01:49:12;;;;;;;33.72;12.82;;;;;;;;;;4980466;28;20034;-70
2022/01/27 01:51:39;;;;;;;36.97;12.88;;;;;;;;;;4985082;28;20026;-71
2022/01/27 01:54:06;;;;;;;30.17;11.23;;;;;;;;;;4979190;28;20169;-71
2022/01/27 01:56:32;;;;;;;37.63;13.25;;;;;;;;;;4964537;28;20050;-70
2022/01/27 01:58:58;;;;;;;42.67;13.60;;;;;;;;;;4987051;28;20042;-70
2022/01/27 02:01:24;;;;;;;36.17;11.38;;;;;;;;;;4984161;28;20714;-70
2022/01/27 02:03:50;;;;;;;37.33;13.32;;;;;;;;;;4980905;28;20463;-69
2022/01/27 02:06:24;;;;;;;40.08;14.75;;;;;;;;;;4974332;28;20131;-71
2022/01/27 02:19:39;;;;;;;38.25;13.30;;;;;;;;;;4999587;28;20112;-71
2022/01/27 02:22:05;;;;;;;40.95;12.85;;;;;;;;;;4986617;28;20045;-70
2022/01/27 02:24:34;;;;;;;36.60;12.55;;;;;;;;;;4984978;28;20062;-71
2022/01/27 02:27:00;;;;;;;40.50;12.02;;;;;;;;;;5000403;28;20060;-71
2022/01/27 02:29:27;;;;;;;39.83;13.20;;;;;;;;;;4967894;28;20038;-71
2022/01/27 02:31:55;;;;;;;47.67;14.05;;;;;;;;;;4984405;28;20042;-70
2022/01/27 02:34:21;;;;;;;44.25;13.30;;;;;;;;;;4984092;28;20177;-71
2022/01/27 02:36:46;;;;;;;45.53;13.15;;;;;;;;;;4983906;28;20555;-70
2022/01/27 02:39:12;;;;;;;36.97;13.75;;;;;;;;;;4982909;28;20644;-71
2022/01/27 02:42:01;;;;;;;47.85;13.45;;;;;;;;;;4985863;28;20034;-71
2022/01/27 02:44:33;;;;;;;41.50;13.15;;;;;;;;;;4982843;28;20126;-71
2022/01/27 02:47:00;;;;;;;43.15;15.05;;;;;;;;;;4980887;28;21080;-71
2022/01/27 02:49:25;;;;;;;46.08;15.30;;;;;;;;;;4982875;28;20035;-71
2022/01/27 02:51:52;;;;;;;44.25;13.68;;;;;;;;;;4982590;28;20034;-71
2022/01/27 02:54:17;;;;;;;41.17;12.88;;;;;;;;;;4996714;28;20076;-70
2022/01/27 02:56:47;;;;;;;47.78;14.68;;;;;;;;;;4981909;28;20125;-70
2022/01/27 02:59:14;;;;;;;40.65;13.77;;;;;;;;;;4992132;28;20583;-71
2022/01/27 03:01:39;;;;;;;40.13;12.98;;;;;;;;;;4985939;28;20046;-70
2022/01/27 03:04:05;;;;;;;43.40;13.15;;;;;;;;;;4986436;28;20029;-71
2022/01/27 03:06:30;;;;;;;40.50;13.13;;;;;;;;;;4986485;28;20042;-71
2022/01/27 03:08:56;;;;;;;42.83;14.35;;;;;;;;;;4985170;28;20147;-71
2022/01/27 03:11:38;;;;;;;41.42;12.75;;;;;;;;;;4986732;28;20109;-71
2022/01/27 03:14:04;;;;;;;43.95;14.38;;;;;;;;;;4984874;28;20308;-70
2022/01/27 03:16:30;;;;;;;44.30;14.25;;;;;;;;;;4980216;28;20042;-71
2022/01/27 03:18:55;;;;;;;46.38;14.82;;;;;;;;;;4981291;28;20100;-71
2022/01/27 03:21:21;;;;;;;39.42;14.70;;;;;;;;;;4982568;28;20021;-71
2022/01/27 03:23:46;;;;;;;43.50;13.88;;;;;;;;;;4980065;28;20143;-70
2022/01/27 03:26:11;;;;;;;37.65;12.48;;;;;;;;;;4984697;28;20046;-71
2022/01/27 03:28:37;;;;;;;39.10;13.85;;;;;;;;;;4985796;28;20081;-71
2022/01/27 03:31:02;;;;;;;39.42;14.40;;;;;;;;;;4985353;28;20105;-71
2022/01/27 03:33:27;;;;;;;48.38;15.45;;;;;;;;;;4989569;28;20652;-71
2022/01/27 03:35:53;;;;;;;45.05;14.55;;;;;;;;;;4981096;28;20474;-71
2022/01/27 03:38:18;;;;;;;44.80;14.63;;;;;;;;;;4982180;28;20070;-71
2022/01/27 03:40:43;;;;;;;47.00;15.85;;;;;;;;;;4981055;28;20038;-71
2022/01/27 03:43:09;;;;;;;40.28;14.00;;;;;;;;;;4982061;28;20615;-71
2022/01/27 03:45:35;;;;;;;46.15;15.45;;;;;;;;;;4982882;28;20030;-70
2022/01/27 03:48:01;;;;;;;37.90;12.73;;;;;;;;;;4980503;28;20076;-70
2022/01/27 03:50:26;;;;;;;45.75;15.55;;;;;;;;;;4984706;28;20038;-71
2022/01/27 03:52:52;;;;;;;50.40;15.00;;;;;;;;;;4983417;28;20070;-71
2022/01/27 03:55:17;;;;;;;39.95;14.52;;;;;;;;;;4980981;28;20042;-70
2022/01/27 03:57:42;;;;;;;46.67;16.08;;;;;;;;;;4987874;28;20135;-69
2022/01/27 04:00:09;;;;;;;46.47;14.63;;;;;;;;;;4984329;28;20100;-71
2022/01/27 04:02:37;;;;;;;43.25;13.07;;;;;;;;;;4983240;28;20038;-71
2022/01/27 04:05:03;;;;;;;52.33;13.85;;;;;;;;;;4981321;28;20061;-70
2022/01/27 04:07:29;;;;;;;43.22;14.13;;;;;;;;;;4984204;28;20053;-71
2022/01/27 04:09:54;;;;;;;51.83;16.08;;;;;;;;;;5000924;28;20025;-70
2022/01/27 04:12:19;;;;;;;47.72;13.95;;;;;;;;;;4967706;28;20488;-71
2022/01/27 04:14:45;;;;;;;45.13;14.80;;;;;;;;;;4996177;28;20085;-71
2022/01/27 04:17:10;;;;;;;50.45;15.48;;;;;;;;;;5000273;28;20072;-70
2022/01/27 04:19:35;;;;;;;45.42;15.52;;;;;;;;;;5004266;28;20041;-71
2022/01/27 04:22:02;;;;;;;45.05;16.20;;;;;;;;;;5004717;28;20029;-71
2022/01/27 04:24:28;;;;;;;41.10;13.43;;;;;;;;;;5000813;28;20161;-71
2022/01/27 04:27:05;;;;;;;49.22;14.95;;;;;;;;;;4999737;28;20519;-71
2022/01/27 04:29:33;;;;;;;45.65;14.68;;;;;;;;;;5003757;28;20061;-71
2022/01/27 04:32:01;;;;;;;45.55;15.90;;;;;;;;;;4983822;28;20088;-70
2022/01/27 04:34:27;;;;;;;33.95;11.70;;;;;;;;;;4985269;28;20065;-71
2022/01/27 04:36:54;;;;;;;51.15;16.23;;;;;;;;;;4984214;28;20125;-70
2022/01/27 04:39:30;;;;;;;50.53;16.20;;;;;;;;;;4981021;28;20046;-71
2022/01/27 04:42:03;;;;;;;43.95;15.57;;;;;;;;;;4979887;28;20051;-71
2022/01/27 04:44:38;;;;;;;;;;;;;;;;;;4983483;28;20034;-71
2022/01/27 04:49:29;;;;;;;50.45;15.93;;;;;;;;;;4988330;28;20738;-71
2022/01/27 04:51:54;;;;;;;46.00;14.85;;;;;;;;;;4985213;28;20083;-70
2022/01/27 04:56:45;;;;;;;47.85;16.38;;;;;;;;;;4984890;28;20077;-71
2022/01/27 04:59:33;;;;;;;41.15;14.25;;;;;;;;;;4987218;28;20095;-71
2022/01/27 05:02:03;;;;;;;45.05;14.15;;;;;;;;;;5003027;28;20035;-70
2022/01/27 05:04:33;;;;;;;48.95;16.00;;;;;;;;;;5004769;28;20038;-69
2022/01/27 05:06:58;;;;;;;50.88;16.55;;;;;;;;;;5003546;28;20583;-72
2022/01/27 05:09:24;;;;;;;52.00;15.88;;;;;;;;;;4984495;28;20037;-71
2022/01/27 05:12:09;;;;;;;48.63;16.25;;;;;;;;;;4988324;28;20030;-71
2022/01/27 05:14:34;;;;;;;55.83;17.02;;;;;;;;;;4986978;28;20039;-71
2022/01/27 05:16:59;;;;;;;47.60;15.32;;;;;;;;;;4985445;28;20034;-70
2022/01/27 05:19:24;;;;;;;45.92;15.55;;;;;;;;;;4988855;28;20038;-71
2022/01/27 05:21:50;;;;;;;53.03;16.13;;;;;;;;;;4987340;28;20859;-71
2022/01/27 05:24:16;;;;;;;52.40;16.50;;;;;;;;;;4987375;28;20085;-71
2022/01/27 05:26:42;;;;;;;48.30;16.17;;;;;;;;;;4983148;28;20404;-70
2022/01/27 05:29:09;;;;;;;50.60;15.57;;;;;;;;;;4990599;28;20037;-71
2022/01/27 05:31:35;;;;;;;45.95;16.00;;;;;;;;;;4987658;28;20034;-71
2022/01/27 05:34:00;;;;;;;53.10;18.48;;;;;;;;;;4988090;28;20496;-70
2022/01/27 05:36:26;;;;;;;53.42;16.05;;;;;;;;;;4986245;28;20061;-71
2022/01/27 05:38:51;;;;;;;51.28;16.35;;;;;;;;;;4984381;28;20722;-70
2022/01/27 05:41:17;;;;;;;46.50;16.02;;;;;;;;;;4987741;28;20544;-71
2022/01/27 05:43:43;;;;;;;50.65;17.40;;;;;;;;;;4988518;28;20049;-71
2022/01/27 05:46:08;;;;;;;60.00;17.50;;;;;;;;;;4988235;28;20037;-71
2022/01/27 05:48:33;;;;;;;47.50;15.93;;;;;;;;;;4983894;28;20036;-70
2022/01/27 05:50:59;;;;;;;56.95;17.33;;;;;;;;;;5007346;28;20359;-71
2022/01/27 05:53:25;;;;;;;57.20;17.02;;;;;;;;;;5006859;28;20044;-71
2022/01/27 05:55:50;;;;;;;48.65;16.58;;;;;;;;;;5002880;28;20632;-71
2022/01/27 05:58:16;;;;;;;53.08;17.48;;;;;;;;;;5000435;28;20030;-71
2022/01/27 06:00:41;;;;;;;51.33;16.10;;;;;;;;;;5000063;28;20101;-70
2022/01/27 06:03:06;;;;;;;50.25;15.38;;;;;;;;;;4986139;28;20674;-70
2022/01/27 06:05:33;;;;;;;56.67;18.88;;;;;;;;;;4987374;28;20424;-70
2022/01/27 06:07:58;;;;;;;56.17;16.95;;;;;;;;;;4983906;28;20045;-71
2022/01/27 06:10:23;;;;;;;53.75;17.45;;;;;;;;;;4981176;28;20042;-70
2022/01/27 06:12:56;;;;;;;46.60;16.73;;;;;;;;;;4984385;28;20093;-70
2022/01/27 06:15:23;;;;;;;53.08;16.95;;;;;;;;;;4984676;28;20054;-72
2022/01/27 06:17:48;;;;;;;45.42;14.00;;;;;;;;;;4986081;28;20042;-71
2022/01/27 06:20:15;;;;;;;54.22;16.23;;;;;;;;;;4983751;28;20042;-70
2022/01/27 06:22:41;;;;;;;44.60;15.98;;;;;;;;;;4978843;28;20076;-70
2022/01/27 06:25:08;;;;;;;48.45;16.63;;;;;;;;;;4976097;28;20539;-71
2022/01/27 06:27:34;;;;;;;59.42;17.73;;;;;;;;;;4983124;28;20041;-70
2022/01/27 06:29:59;;;;;;;61.40;19.77;;;;;;;;;;5010231;28;20038;-71
2022/01/27 06:32:25;;;;;;;61.78;19.98;;;;;;;;;;4984688;28;20038;-71
2022/01/27 06:34:50;;;;;;;59.40;20.17;;;;;;;;;;4990663;28;20096;-71
2022/01/27 06:37:15;;;;;;;50.28;17.52;;;;;;;;;;4990879;28;20427;-71
2022/01/27 06:39:41;;;;;;;60.28;18.00;;;;;;;;;;4979816;28;20519;-70
2022/01/27 06:42:07;;;;;;;48.97;17.48;;;;;;;;;;4979560;28;20054;-70
2022/01/27 06:44:33;;;;;;;51.03;17.63;;;;;;;;;;4979999;28;20432;-70
2022/01/27 06:46:59;;;;;;;55.65;17.85;;;;;;;;;;4984415;28;20043;-71
2022/01/27 06:49:24;;;;;;;59.40;20.92;;;;;;;;;;4985980;28;20046;-71
2022/01/27 06:51:50;;;;;;;59.75;19.67;;;;;;;;;;4983556;28;20115;-72
2022/01/27 06:54:16;;;;;;;54.15;17.95;;;;;;;;;;4978966;28;20042;-70
2022/01/27 06:56:43;;;;;;;62.58;19.27;;;;;;;;;;4982647;28;20479;-70
2022/01/27 06:59:08;;;;;;;57.47;18.23;;;;;;;;;;4991443;28;20503;-70
2022/01/27 07:01:34;;;;;;;55.38;18.73;;;;;;;;;;4981895;28;20046;-71
2022/01/27 07:03:59;;;;;;;53.00;19.23;;;;;;;;;;4979566;28;20033;-71
2022/01/27 07:06:24;;;;;;;41.00;14.95;;;;;;;;;;4981857;28;20642;-70
2022/01/27 07:08:50;;;;;;;63.50;18.17;;;;;;;;;;4997822;28;20598;-71
2022/01/27 07:11:15;;;;;;;53.83;17.23;;;;;;;;;;4989565;28;20042;-70
2022/01/27 07:13:41;;;;;;;55.60;17.92;;;;;;;;;;4982707;28;20038;-70
2022/01/27 07:16:09;;;;;;;53.00;17.83;;;;;;;;;;4982960;28;20034;-71
2022/01/27 07:18:36;;;;;;;53.70;17.40;;;;;;;;;;4979274;28;20077;-71
2022/01/27 07:21:02;;;;;;;43.70;16.48;;;;;;;;;;4994621;28;20046;-71
2022/01/27 07:23:27;;;;;;;52.20;18.08;;;;;;;;;;4977664;28;20038;-70
2022/01/27 07:25:52;;;;;;;42.78;14.50;;;;;;;;;;4974210;28;20042;-70
2022/01/27 07:28:18;;;;;;;48.22;16.58;;;;;;;;;;4984740;28;20034;-71
2022/01/27 07:30:43;;;;;;;52.45;16.92;;;;;;;;;;4985043;28;20583;-71
2022/01/27 07:33:08;;;;;;;45.15;16.40;;;;;;;;;;4978371;28;20045;-71
2022/01/27 07:35:34;;;;;;;46.50;16.42;;;;;;;;;;4977803;28;20046;-67
2022/01/27 07:37:59;;;;;;;50.15;17.35;;;;;;;;;;4991483;28;20039;-71
2022/01/27 07:40:24;;;;;;;57.33;18.33;;;;;;;;;;4982470;28;20041;-71
2022/01/27 07:42:50;;;;;;;57.17;17.65;;;;;;;;;;4985846;28;20113;-71
2022/01/27 07:45:15;;;;;;;56.92;16.65;;;;;;;;;;4960531;28;20859;-71
2022/01/27 07:47:41;;;;;;;53.85;17.35;;;;;;;;;;4979552;28;20042;-71
2022/01/27 07:50:07;;;;;;;50.70;16.50;;;;;;;;;;4980280;28;20547;-66
2022/01/27 07:52:33;;;;;;;49.05;14.10;;;;;;;;;;4980804;28;20041;-67
2022/01/27 07:54:58;;;;;;;54.85;17.23;;;;;;;;;;4981698;28;20030;-67
2022/01/27 07:57:24;;;;;;;48.25;16.45;;;;;;;;;;4980993;28;20152;-68
2022/01/27 07:59:49;;;;;;;56.45;18.20;;;;;;;;;;4980833;28;20044;-71
2022/01/27 08:02:15;;;;;;;57.08;18.60;;;;;;;;;;4982682;28;20038;-69
2022/01/27 08:04:40;;;;;;;51.85;18.65;;;;;;;;;;4980550;28;20048;-68
2022/01/27 08:07:08;;;;;;;46.72;16.00;;;;;;;;;;4982382;28;20077;-71
2022/01/27 08:09:33;;;;;;;42.65;15.70;;;;;;;;;;4978259;28;20397;-69
2022/01/27 08:11:59;;;;;;;54.22;17.85;;;;;;;;;;4971358;28;20048;-71
2022/01/27 08:14:24;;;;;;;47.72;16.33;;;;;;;;;;4977043;28;20122;-69
2022/01/27 08:16:49;;;;;;;48.95;17.23;;;;;;;;;;4974600;28;20122;-69
2022/01/27 08:19:15;;;;;;;53.80;16.98;;;;;;;;;;4982200;28;20048;-69
2022/01/27 08:21:40;;;;;;;63.60;17.63;;;;;;;;;;4986944;28;20563;-69
2022/01/27 08:24:06;;;;;;;58.00;20.02;;;;;;;;;;4996048;28;20042;-68
2022/01/27 08:31:43;;;;;;;57.42;18.95;;;;;;;;;;4983053;28;20039;-68
2022/01/27 08:34:14;;;;;;;48.72;16.83;;;;;;;;;;4997811;28;20031;-68
2022/01/27 08:36:41;;;;;;;49.03;16.13;;;;;;;;;;4979338;28;20455;-68
2022/01/27 08:39:06;;;;;;;53.60;18.90;;;;;;;;;;4979193;28;20045;-69
2022/01/27 08:41:31;;;;;;;52.22;16.48;;;;;;;;;;4974857;28;20042;-69
2022/01/27 08:43:57;;;;;;;58.17;18.80;;;;;;;;;;4975454;28;20035;-69
2022/01/27 08:46:22;;;;;;;52.28;18.40;;;;;;;;;;4984354;28;20070;-72
2022/01/27 08:48:47;;;;;;;53.20;16.33;;;;;;;;;;4986720;28;20025;-68
2022/01/27 08:51:14;;;;;;;55.92;17.38;;;;;;;;;;4984643;28;20046;-68
2022/01/27 08:53:40;;;;;;;57.13;18.65;;;;;;;;;;4983129;28;20750;-68
2022/01/27 08:56:05;;;;;;;52.25;17.17;;;;;;;;;;4984951;28;20030;-68
2022/01/27 08:58:34;;;;;;;50.85;16.25;;;;;;;;;;4982369;28;20169;-68
2022/01/27 09:00:59;;;;;;;60.63;20.15;;;;;;;;;;4974751;28;20018;-68
2022/01/27 09:03:24;;;;;;;52.30;16.38;;;;;;;;;;4985488;28;20018;-69
2022/01/27 09:05:50;;;;;;;54.08;16.58;;;;;;;;;;4984382;28;20529;-68
2022/01/27 09:08:15;;;;;;;44.85;17.00;;;;;;;;;;4978882;28;20161;-69
2022/01/27 09:10:41;;;;;;;53.30;18.63;;;;;;;;;;4974106;28;20038;-71
2022/01/27 09:13:07;;;;;;;59.30;19.38;;;;;;;;;;4974388;28;20540;-68
2022/01/27 09:15:32;;;;;;;55.75;19.17;;;;;;;;;;4982941;28;21035;-70
2022/01/27 09:17:59;;;;;;;54.60;17.90;;;;;;;;;;4978865;28;20042;-70
2022/01/27 09:20:25;;;;;;;48.83;17.65;;;;;;;;;;4982155;28;20072;-72
2022/01/27 09:22:53;;;;;;;45.80;16.67;;;;;;;;;;4984848;28;21061;-68
2022/01/27 09:25:23;;;;;;;50.70;18.30;;;;;;;;;;4983662;28;20049;-69
2022/01/27 09:27:49;;;;;;;48.72;17.33;;;;;;;;;;4985310;28;20518;-72
2022/01/27 09:30:17;;;;;;;46.00;16.73;;;;;;;;;;4979330;28;20120;-72
2022/01/27 09:32:43;;;;;;;52.70;17.58;;;;;;;;;;4986649;28;20034;-72
2022/01/27 09:35:08;;;;;;;53.53;19.40;;;;;;;;;;4978920;28;20073;-69
2022/01/27 09:37:34;;;;;;;49.22;18.15;;;;;;;;;;4976676;28;20065;-70
2022/01/27 09:40:00;;;;;;;50.75;16.67;;;;;;;;;;4973315;28;20038;-71
2022/01/27 09:42:28;;;;;;;50.83;18.38;;;;;;;;;;4974325;28;20160;-72
2022/01/27 09:44:54;;;;;;;60.20;19.80;;;;;;;;;;4981464;28;20049;-69
2022/01/27 09:47:23;;;;;;;52.08;19.35;;;;;;;;;;4984325;28;20468;-71
2022/01/27 09:49:54;;;;;;;47.75;17.15;;;;;;;;;;4982367;28;20048;-70
2022/01/27 09:52:19;;;;;;;54.97;16.45;;;;;;;;;;4981854;28;20046;-70
2022/01/27 09:54:45;;;;;;;57.45;19.08;;;;;;;;;;4983525;28;20393;-71
2022/01/27 09:57:17;;;;;;;58.25;20.83;;;;;;;;;;4985387;28;20126;-68
2022/01/27 09:59:46;;;;;;;57.88;18.33;;;;;;;;;;4984984;28;20869;-67
2022/01/27 10:02:16;;;;;;;52.45;18.88;;;;;;;;;;4982434;28;20046;-70
2022/01/27 10:04:57;;;;;;;58.78;18.45;;;;;;;;;;4973808;28;20420;-71
2022/01/27 10:07:38;;;;;;;51.45;17.40;;;;;;;;;;4973504;28;20054;-68
2022/01/27 10:10:07;;;;;;;59.83;19.27;;;;;;;;;;4976007;28;20050;-73
2022/01/27 10:12:38;;;;;;;49.28;16.98;;;;;;;;;;4977658;28;20062;-70
2022/01/27 10:15:18;;;;;;;52.78;17.23;;;;;;;;;;4973290;28;20145;-70
2022/01/27 10:18:05;;;;;;;53.60;16.92;;;;;;;;;;4968006;28;20050;-71
2022/01/27 10:20:31;;;;;;;46.30;15.88;;;;;;;;;;4985116;28;20526;-69
2022/01/27 10:23:12;;;;;;;57.53;19.45;;;;;;;;;;4984645;28;20038;-71
2022/01/27 10:25:47;;;;;;;47.65;15.77;;;;;;;;;;4976475;28;20942;-68
2022/01/27 10:28:29;;;;;;;54.40;19.45;;;;;;;;;;4988582;28;20527;-69
2022/01/27 10:31:19;;;;;;;61.10;19.00;;;;;;;;;;4983418;28;20065;-68
2022/01/27 10:33:46;;;;;;;54.47;19.00;;;;;;;;;;4983062;28;20026;-69
2022/01/27 10:36:26;;;;;;;53.70;17.58;;;;;;;;;;4984829;28;20050;-71
2022/01/27 10:38:56;;;;;;;49.75;17.25;;;;;;;;;;4983925;28;20081;-73
2022/01/27 10:41:22;;;;;;;55.45;17.85;;;;;;;;;;4971950;28;20122;-71
2022/01/27 10:43:47;;;;;;;56.92;19.92;;;;;;;;;;4983784;28;20113;-71
2022/01/27 10:46:24;;;;;;;60.15;18.70;;;;;;;;;;4984956;28;20065;-71
2022/01/27 10:49:06;;;;;;;52.65;18.98;;;;;;;;;;4985490;28;20116;-71
2022/01/27 10:51:41;;;;;;;50.42;17.17;;;;;;;;;;4984482;28;20046;-72
2022/01/27 10:54:18;;;;;;;50.95;17.45;;;;;;;;;;4983431;28;20049;-72
2022/01/27 10:56:44;;;;;;;61.63;19.35;;;;;;;;;;4983778;28;20042;-71
2022/01/27 10:59:19;;;;;;;52.05;19.30;;;;;;;;;;4993439;28;20061;-71
2022/01/27 11:01:53;;;;;;;54.15;19.80;;;;;;;;;;4982642;28;20651;-72
2022/01/27 11:04:20;;;;;;;55.00;19.08;;;;;;;;;;4982781;28;20041;-72
2022/01/27 11:06:57;;;;;;;52.45;17.90;;;;;;;;;;4983575;28;20061;-72
2022/01/27 11:09:24;;;;;;;59.80;18.27;;;;;;;;;;4985160;28;20057;-70
2022/01/27 11:11:52;;;;;;;64.30;19.30;;;;;;;;;;4984259;28;20145;-71
2022/01/27 11:14:17;;;;;;;59.13;19.23;;;;;;;;;;4976272;28;20046;-70
2022/01/27 11:16:44;;;;;;;56.72;18.25;;;;;;;;;;4981680;28;20035;-71
2022/01/27 11:21:45;;;;;;;56.47;18.35;;;;;;;;;;4975562;28;20143;-71
2022/01/27 11:24:17;;;;;;;60.55;20.67;;;;;;;;;;4980937;28;20046;-72
2022/01/27 11:26:44;;;;;;;49.45;17.70;;;;;;;;;;4982202;28;20047;-72
2022/01/27 11:29:12;;;;;;;60.80;21.60;;;;;;;;;;4983801;28;20050;-72
2022/01/27 11:32:00;;;;;;;51.15;17.27;;;;;;;;;;4984596;28;20090;-70
2022/01/27 11:34:44;;;;;;;66.03;19.70;;;;;;;;;;4976992;28;20057;-70
2022/01/27 11:37:09;;;;;;;59.45;19.25;;;;;;;;;;4976033;28;20074;-74
2022/01/27 11:39:54;;;;;;;67.30;20.73;;;;;;;;;;4982985;28;20061;-71
2022/01/27 11:42:35;;;;;;;56.90;18.65;;;;;;;;;;4983594;28;20050;-73
2022/01/27 11:45:38;;;;;;;68.00;20.23;;;;;;;;;;4982846;28;20046;-73
2022/01/27 11:48:12;;;;;;;64.35;20.33;;;;;;;;;;5002306;28;20539;-73
2022/01/27 11:50:39;;;;;;;65.35;19.33;;;;;;;;;;4984204;28;20046;-73
2022/01/27 11:53:07;;;;;;;59.80;19.20;;;;;;;;;;4977653;28;20490;-71
2022/01/27 11:55:37;;;;;;;64.57;20.02;;;;;;;;;;4982012;28;20137;-71
2022/01/27 11:58:12;;;;;;;58.45;20.63;;;;;;;;;;4982373;28;20034;-70
2022/01/27 12:00:39;;;;;;;64.82;21.40;;;;;;;;;;4966672;28;20031;-72
2022/01/27 12:03:09;;;;;;;68.03;22.90;;;;;;;;;;4983788;28;20532;-72
2022/01/27 12:05:39;;;;;;;77.88;21.00;;;;;;;;;;4983380;28;20050;-69
2022/01/27 12:08:14;;;;;;;73.40;21.70;;;;;;;;;;4997636;28;20092;-69
2022/01/27 12:10:49;;;;;;;62.80;19.23;;;;;;;;;;4982395;28;20042;-72
2022/01/27 12:13:33;;;;;;;68.32;21.17;;;;;;;;;;4973253;28;20064;-70
2022/01/27 12:16:25;;;;;;;68.63;21.55;;;;;;;;;;4982010;28;20029;-73
2022/01/27 12:19:12;;;;;;;76.50;21.45;;;;;;;;;;4984112;28;20026;-71
2022/01/27 12:21:48;;;;;;;74.60;21.38;;;;;;;;;;4970775;28;20038;-72
2022/01/27 12:24:23;;;;;;;69.68;20.73;;;;;;;;;;4979261;28;20514;-69
2022/01/27 12:27:06;;;;;;;68.47;18.38;;;;;;;;;;4978874;28;20533;-71
2022/01/27 12:29:40;;;;;;;69.55;19.05;;;;;;;;;;4982168;28;20102;-72
2022/01/27 12:32:21;;;;;;;72.25;21.77;;;;;;;;;;4981554;28;20050;-72
2022/01/27 12:34:48;;;;;;;79.63;23.77;;;;;;;;;;4982334;28;20069;-70
2022/01/27 12:37:14;;;;;;;80.53;21.38;;;;;;;;;;4981204;28;20042;-71
2022/01/27 12:39:50;;;;;;;85.38;23.13;;;;;;;;;;4983891;28;20504;-70
2022/01/27 12:42:17;;;;;;;68.15;18.85;;;;;;;;;;4982996;28;20038;-72
2022/01/27 12:44:58;;;;;;;64.65;20.55;;;;;;;;;;4979255;28;20049;-71
2022/01/27 12:47:25;;;;;;;73.00;21.77;;;;;;;;;;4974378;28;20104;-73
2022/01/27 12:50:05;;;;;;;65.43;20.58;;;;;;;;;;4983230;28;20602;-73
2022/01/27 12:52:36;;;;;;;68.55;19.77;;;;;;;;;;4980952;28;20343;-71
2022/01/27 12:55:03;;;;;;;66.93;21.30;;;;;;;;;;4983022;28;20082;-72
2022/01/27 12:57:32;;;;;;;65.28;22.00;;;;;;;;;;4983811;28;20046;-71
2022/01/27 12:59:58;;;;;;;64.13;20.00;;;;;;;;;;4981968;28;20047;-73
2022/01/27 13:02:25;;;;;;;72.80;22.30;;;;;;;;;;4988070;28;20125;-70
2022/01/27 13:04:58;;;;;;;62.65;20.80;;;;;;;;;;5001945;28;20121;-70
2022/01/27 13:07:24;;;;;;;81.70;22.60;;;;;;;;;;5000680;28;20531;-72
2022/01/27 13:09:59;;;;;;;70.13;21.00;;;;;;;;;;5006462;28;20101;-70
2022/01/27 13:12:30;;;;;;;71.78;21.25;;;;;;;;;;4984720;28;20113;-68
2022/01/27 13:15:06;;;;;;;75.90;22.40;;;;;;;;;;4980596;28;20038;-72
2022/01/27 13:17:45;;;;;;;62.30;19.25;;;;;;;;;;4981769;28;20591;-71
2022/01/27 13:20:23;;;;;;;86.55;23.60;;;;;;;;;;4974654;28;20049;-70
2022/01/27 13:22:53;;;;;;;56.97;17.42;;;;;;;;;;4993341;28;20034;-73
2022/01/27 13:25:21;;;;;;;68.88;19.55;;;;;;;;;;4996608;28;20037;-73
2022/01/27 13:28:04;;;;;;;67.97;21.33;;;;;;;;;;4983495;28;20030;-72
2022/01/27 13:30:31;;;;;;;73.28;22.83;;;;;;;;;;4983788;28;20411;-73
2022/01/27 13:32:56;;;;;;;63.83;19.67;;;;;;;;;;4984361;28;20817;-72
2022/01/27 13:35:22;;;;;;;51.95;17.45;;;;;;;;;;4983204;28;20093;-72
2022/01/27 13:37:47;;;;;;;67.40;19.58;;;;;;;;;;4965773;28;20527;-73
2022/01/27 13:43:10;;;;;;;65.03;19.48;;;;;;;;;;4979785;28;20092;-73
2022/01/27 13:45:36;;;;;;;62.45;19.15;;;;;;;;;;4976445;28;20038;-74
2022/01/27 13:48:22;;;;;;;53.75;16.30;;;;;;;;;;4989265;28;20042;-74
2022/01/27 13:50:59;;;;;;;50.17;17.83;;;;;;;;;;4974088;28;20468;-73
2022/01/27 13:53:26;;;;;;;58.83;17.65;;;;;;;;;;4992698;28;20043;-74
2022/01/27 13:56:01;;;;;;;58.38;17.88;;;;;;;;;;5001152;28;20038;-74
2022/01/27 13:58:28;;;;;;;43.97;15.23;;;;;;;;;;4985050;28;20041;-74
2022/01/27 14:01:11;;;;;;;60.72;18.55;;;;;;;;;;4987043;28;20022;-73
2022/01/27 14:03:42;;;;;;;59.33;20.27;;;;;;;;;;4985193;28;20669;-73
2022/01/27 14:06:08;;;;;;;53.80;17.10;;;;;;;;;;4979978;28;20066;-73
2022/01/27 14:08:45;;;;;;;61.53;19.02;;;;;;;;;;4970830;28;20126;-71
2022/01/27 14:11:16;;;;;;;59.67;18.58;;;;;;;;;;4966782;28;20129;-71
2022/01/27 14:13:56;;;;;;;61.05;20.70;;;;;;;;;;4983866;28;20073;-70
2022/01/27 14:16:28;;;;;;;46.22;14.60;;;;;;;;;;4994861;28;20042;-70
2022/01/27 14:18:54;;;;;;;57.20;19.73;;;;;;;;;;4984623;28;20086;-71
2022/01/27 14:21:25;;;;;;;51.63;15.30;;;;;;;;;;4982160;28;20449;-72
2022/01/27 14:26:29;;;;;;;51.90;17.90;;;;;;;;;;5000284;28;20060;-71
2022/01/27 14:28:56;;;;;;;57.45;16.45;;;;;;;;;;4987268;28;20053;-73
2022/01/27 14:31:22;;;;;;;49.78;19.05;;;;;;;;;;4996473;28;20067;-71
2022/01/27 14:33:48;;;;;;;45.55;14.27;;;;;;;;;;5004666;28;20555;-71
2022/01/27 14:36:14;;;;;;;50.03;15.32;;;;;;;;;;5004398;28;20049;-71
2022/01/27 14:38:40;;;;;;;54.85;16.88;;;;;;;;;;5002917;28;20092;-75
2022/01/27 14:41:06;;;;;;;49.65;15.30;;;;;;;;;;4985466;28;20038;-74
2022/01/27 14:43:37;;;;;;;54.38;17.45;;;;;;;;;;4985512;28;20040;-72
2022/01/27 14:46:02;;;;;;;51.00;15.68;;;;;;;;;;4997395;28;20088;-73
2022/01/27 14:48:30;;;;;;;50.53;16.13;;;;;;;;;;5003970;28;20033;-76
2022/01/27 14:50:57;;;;;;;47.13;15.65;;;;;;;;;;4971220;28;20463;-74
2022/01/27 14:53:23;;;;;;;44.13;14.60;;;;;;;;;;4982774;28;20051;-74
2022/01/27 14:55:48;;;;;;;39.40;13.93;;;;;;;;;;4981270;28;20042;-73
2022/01/27 14:58:13;;;;;;;40.03;13.98;;;;;;;;;;4980247;28;20125;-75
2022/01/27 15:00:39;;;;;;;37.63;13.55;;;;;;;;;;4976403;28;20679;-73
2022/01/27 15:03:05;;;;;;;43.13;13.57;;;;;;;;;;4980508;28;20053;-71
2022/01/27 15:05:30;;;;;;;41.15;13.68;;;;;;;;;;4979775;28;20053;-75
2022/01/27 15:07:56;;;;;;;44.95;13.77;;;;;;;;;;4974710;28;20039;-75
2022/01/27 15:10:22;;;;;;;35.75;12.38;;;;;;;;;;4981278;28;20042;-73
2022/01/27 15:12:50;;;;;;;39.33;13.43;;;;;;;;;;4982459;28;20038;-71
2022/01/27 15:20:45;;;;;;;33.78;11.98;;;;;;;;;;4975851;28;20093;-76
2022/01/27 15:23:13;;;;;;;32.50;11.82;;;;;;;;;;4973077;28;20043;-70
2022/01/27 15:25:38;;;;;;;32.55;11.48;;;;;;;;;;4979546;28;20046;-71
2022/01/27 15:28:05;;;;;;;34.00;12.75;;;;;;;;;;4978920;28;20064;-73